Time;durP1;ratioP1;P1;durP2;ratioP2;P2;SDS_P1;SDS_P2;PMS_P1;PMS_P2;Temp;Humidity;BMP_temperature;BMP_pressure;BME280_temperature;BME280_humidity;BME280_pressure;Samples;Min_cycle;Max_cycle;Signal;HPM_P1;HPM_P2
2021/06/07 00:01:18;;;;;;;13.20;7.10;;;;;;;15.74;75.34;99748.31;5025721;28;20091;-68
2021/06/07 00:03:44;;;;;;;12.27;6.18;;;;;;;15.82;74.98;99740.84;5043364;28;20067;-69
2021/06/07 00:06:10;;;;;;;9.95;6.45;;;;;;;15.84;74.92;99747.00;5046077;28;20053;-67
2021/06/07 00:08:36;;;;;;;8.10;6.38;;;;;;;15.87;74.67;99746.88;5044209;28;20528;-67
2021/06/07 00:11:02;;;;;;;10.13;6.72;;;;;;;15.84;74.90;99755.91;5045110;28;20056;-68
2021/06/07 00:13:29;;;;;;;8.55;6.63;;;;;;;15.78;74.93;99741.91;5023215;28;20056;-68
2021/06/07 00:15:55;;;;;;;9.32;6.97;;;;;;;15.74;74.73;99737.63;5043468;28;20090;-68
2021/06/07 00:18:24;;;;;;;11.13;7.15;;;;;;;15.77;75.20;99749.06;5045202;28;20109;-68
2021/06/07 00:20:58;;;;;;;10.90;7.22;;;;;;;15.67;75.02;99753.00;5063334;28;20055;-70
2021/06/07 00:23:24;;;;;;;12.52;7.28;;;;;;;15.75;74.81;99752.72;5046463;28;20208;-69
2021/06/07 00:25:53;;;;;;;10.70;6.85;;;;;;;15.68;75.13;99738.75;5058776;28;20153;-69
2021/06/07 00:28:21;;;;;;;12.40;7.30;;;;;;;15.79;75.13;99757.84;5062300;28;20040;-69
2021/06/07 00:30:47;;;;;;;11.88;7.85;;;;;;;15.70;75.24;99757.41;5046611;28;20045;-70
2021/06/07 00:33:13;;;;;;;10.68;7.28;;;;;;;15.70;75.54;99758.25;5045299;28;20033;-68
2021/06/07 00:35:39;;;;;;;9.15;7.55;;;;;;;15.69;75.37;99744.94;5044302;28;20076;-69
2021/06/07 00:38:05;;;;;;;12.45;8.07;;;;;;;15.56;76.00;99727.66;5013452;28;20052;-68
2021/06/07 00:40:31;;;;;;;14.35;8.13;;;;;;;15.70;75.40;99768.09;5058157;28;20052;-69
2021/06/07 00:42:57;;;;;;;11.48;8.60;;;;;;;15.69;75.72;99767.22;5057790;28;20100;-68
2021/06/07 00:45:26;;;;;;;11.85;8.40;;;;;;;15.66;75.50;99755.78;5062293;28;20048;-69
2021/06/07 00:47:55;;;;;;;15.93;9.23;;;;;;;15.68;75.63;99768.16;5064627;28;21553;-68
2021/06/07 00:50:49;;;;;;;12.65;8.70;;;;;;;15.65;75.79;99768.25;5043579;28;20049;-69
2021/06/07 00:53:17;;;;;;;14.52;9.68;;;;;;;15.46;76.45;99753.88;5038285;28;20048;-69
2021/06/07 00:55:48;;;;;;;15.65;9.32;;;;;;;15.54;76.50;99769.63;5049918;28;20063;-69
2021/06/07 00:58:15;;;;;;;14.38;10.02;;;;;;;15.48;75.79;99754.72;5024618;28;20052;-68
2021/06/07 01:00:42;;;;;;;17.05;9.65;;;;;;;15.45;75.59;99745.94;5045502;28;20178;-68
2021/06/07 01:03:12;;;;;;;16.77;9.45;;;;;;;15.59;75.77;99764.97;5060062;28;20048;-69
2021/06/07 01:05:38;;;;;;;12.38;8.90;;;;;;;15.60;75.24;99769.38;5048100;28;20534;-69
2021/06/07 01:08:05;;;;;;;19.58;10.10;;;;;;;15.50;76.56;99765.34;5048319;28;20037;-68
2021/06/07 01:10:33;;;;;;;16.75;10.00;;;;;;;15.56;75.91;99762.41;5060310;28;20098;-68
2021/06/07 01:12:59;;;;;;;16.80;9.85;;;;;;;15.63;75.40;99764.75;5047551;28;20052;-69
2021/06/07 01:15:27;;;;;;;16.00;9.68;;;;;;;15.50;75.44;99743.97;5011406;28;20049;-69
2021/06/07 01:17:53;;;;;;;18.42;9.73;;;;;;;15.62;75.16;99764.84;5034774;28;20052;-69
2021/06/07 01:20:22;;;;;;;18.50;10.07;;;;;;;15.63;75.25;99762.09;5032487;28;20175;-69
2021/06/07 01:22:50;;;;;;;17.17;10.25;;;;;;;15.62;75.86;99757.69;5012224;28;20056;-70
2021/06/07 01:25:37;;;;;;;16.58;10.90;;;;;;;15.62;75.43;99764.84;5032042;28;20041;-69
2021/06/07 01:28:05;;;;;;;12.65;9.85;;;;;;;15.55;75.54;99748.16;5034153;28;20079;-69
2021/06/07 01:30:35;;;;;;;15.82;9.38;;;;;;;15.59;74.65;99755.13;5061649;28;20056;-68
2021/06/07 01:33:04;;;;;;;19.83;9.88;;;;;;;15.66;74.25;99764.66;5054342;28;20049;-69
2021/06/07 01:35:31;;;;;;;16.40;9.73;;;;;;;15.63;74.46;99763.91;5047131;28;20087;-68
2021/06/07 01:37:57;;;;;;;18.15;10.15;;;;;;;15.64;74.29;99763.84;5026989;28;20055;-67
2021/06/07 01:40:33;;;;;;;16.52;10.85;;;;;;;15.59;75.39;99760.47;5056825;28;20412;-69
2021/06/07 01:42:59;;;;;;;18.40;11.18;;;;;;;15.56;75.13;99736.56;5055745;28;20112;-69
2021/06/07 01:45:27;;;;;;;16.50;10.43;;;;;;;15.68;74.57;99762.81;5026629;28;20044;-69
2021/06/07 01:47:55;;;;;;;16.92;11.35;;;;;;;15.69;74.62;99759.19;5049952;28;20045;-69
2021/06/07 01:50:20;;;;;;;18.30;10.88;;;;;;;15.72;74.74;99768.88;5055911;28;20041;-69
2021/06/07 01:52:49;;;;;;;16.63;11.35;;;;;;;15.68;74.73;99753.91;5045557;28;20109;-69
2021/06/07 01:55:20;;;;;;;15.38;11.10;;;;;;;15.70;74.90;99755.56;5047762;28;20041;-70
2021/06/07 01:57:48;;;;;;;23.70;10.90;;;;;;;15.78;74.61;99757.94;5032945;28;20513;-69
2021/06/07 02:00:21;;;;;;;21.88;11.68;;;;;;;15.57;74.50;99716.91;5030958;28;20051;-69
2021/06/07 02:02:47;;;;;;;17.98;11.20;;;;;;;15.64;74.77;99729.09;5047182;28;20048;-69
2021/06/07 02:05:20;;;;;;;20.15;11.68;;;;;;;15.77;74.48;99757.06;5029552;28;20037;-69
2021/06/07 02:07:57;;;;;;;18.88;11.52;;;;;;;15.76;74.55;99757.13;5036026;28;20037;-69
2021/06/07 02:10:27;;;;;;;15.95;11.57;;;;;;;15.58;74.83;99725.81;5067056;28;20040;-69
2021/06/07 02:12:53;;;;;;;20.65;12.02;;;;;;;15.79;74.59;99763.22;5058231;28;20044;-69
2021/06/07 02:15:20;;;;;;;25.20;12.93;;;;;;;15.79;74.71;99760.53;5059305;28;20112;-69
2021/06/07 02:17:46;;;;;;;23.42;12.88;;;;;;;15.85;74.41;99768.31;5050333;28;20395;-69
2021/06/07 02:20:15;;;;;;;18.77;12.18;;;;;;;15.83;74.37;99747.94;5066645;28;20500;-70
2021/06/07 02:22:44;;;;;;;27.17;13.93;;;;;;;15.94;74.40;99764.41;5053768;28;20095;-70
2021/06/07 02:25:13;;;;;;;20.90;13.63;;;;;;;16.03;73.92;99764.00;5031944;28;20396;-69
2021/06/07 02:27:40;;;;;;;23.20;14.02;;;;;;;16.07;74.08;99763.84;5061017;28;20051;-70
2021/06/07 02:30:10;;;;;;;27.67;15.20;;;;;;;16.10;73.90;99763.69;5058574;28;20049;-71
2021/06/07 02:32:37;;;;;;;26.50;14.65;;;;;;;16.13;73.71;99773.38;5055590;28;20563;-69
2021/06/07 02:35:06;;;;;;;28.17;14.82;;;;;;;16.16;73.87;99766.09;5051181;28;20102;-70
2021/06/07 02:37:32;;;;;;;24.55;14.65;;;;;;;16.19;73.57;99770.44;5046147;28;20090;-70
2021/06/07 02:39:59;;;;;;;26.80;15.43;;;;;;;16.17;73.62;99764.28;5057889;28;20048;-67
2021/06/07 02:42:25;;;;;;;25.45;16.02;;;;;;;16.20;73.32;99750.78;5046966;28;20508;-69
2021/06/07 02:44:51;;;;;;;19.40;14.30;;;;;;;16.22;72.86;99747.09;5045851;28;20068;-69
2021/06/07 02:47:17;;;;;;;28.35;15.40;;;;;;;16.40;72.84;99764.16;5050618;28;20405;-70
2021/06/07 02:49:43;;;;;;;27.98;15.85;;;;;;;16.49;72.59;99763.78;5059273;28;20029;-69
2021/06/07 02:52:10;;;;;;;25.00;16.02;;;;;;;16.55;72.06;99761.75;5045504;28;20044;-68
2021/06/07 02:54:36;;;;;;;28.75;18.98;;;;;;;16.57;71.76;99754.50;5065211;28;20044;-69
2021/06/07 02:57:03;;;;;;;29.33;19.90;;;;;;;16.58;71.55;99750.03;5040776;28;20051;-70
2021/06/07 02:59:29;;;;;;;38.10;21.40;;;;;;;16.67;71.78;99763.00;5059962;28;20469;-68
2021/06/07 03:01:56;;;;;;;31.35;22.13;;;;;;;16.60;71.51;99753.50;5029223;28;20113;-72
2021/06/07 03:04:22;;;;;;;39.35;22.98;;;;;;;16.76;71.48;99770.59;5062507;28;20454;-73
2021/06/07 03:06:48;;;;;;;41.45;25.15;;;;;;;16.74;71.15;99770.66;5044036;28;20210;-72
2021/06/07 03:09:14;;;;;;;39.47;26.23;;;;;;;16.75;71.38;99758.16;5045223;28;20041;-71
2021/06/07 03:11:40;;;;;;;45.17;29.23;;;;;;;16.78;71.01;99761.56;5046451;28;20044;-71
2021/06/07 03:14:06;;;;;;;47.40;32.05;;;;;;;16.70;70.99;99739.63;5061077;28;20462;-70
2021/06/07 03:16:32;;;;;;;51.17;33.00;;;;;;;16.98;70.95;99772.25;5043948;28;20119;-71
2021/06/07 03:18:58;;;;;;;51.13;34.70;;;;;;;17.01;70.61;99769.44;5062356;28;20118;-71
2021/06/07 03:21:24;;;;;;;57.58;34.13;;;;;;;17.09;70.11;99748.50;5012036;28;20036;-74
2021/06/07 03:23:50;;;;;;;53.70;34.05;;;;;;;17.24;70.24;99760.31;5043599;28;20037;-72
2021/06/07 03:26:16;;;;;;;51.13;33.45;;;;;;;17.26;69.91;99751.25;5047891;28;20048;-71
2021/06/07 03:28:42;;;;;;;52.30;34.40;;;;;;;17.40;69.70;99764.91;5040706;28;20412;-70
2021/06/07 03:31:09;;;;;;;56.95;33.10;;;;;;;17.52;69.66;99767.03;5045711;28;20051;-70
2021/06/07 03:33:35;;;;;;;53.35;33.70;;;;;;;17.61;69.31;99777.28;5063541;28;20443;-72
2021/06/07 03:36:04;;;;;;;54.45;33.17;;;;;;;17.69;68.98;99774.25;5037633;28;20047;-71
2021/06/07 03:38:32;;;;;;;48.97;31.90;;;;;;;17.65;69.20;99770.00;5050505;28;20048;-72
2021/06/07 03:40:59;;;;;;;48.53;31.13;;;;;;;17.79;68.79;99770.16;5036705;28;20036;-70
2021/06/07 03:43:30;;;;;;;48.35;30.55;;;;;;;17.83;69.06;99772.63;5073042;28;20071;-71
2021/06/07 03:45:57;;;;;;;46.58;28.92;;;;;;;17.91;68.24;99774.94;5069622;28;20508;-71
2021/06/07 03:48:25;;;;;;;46.67;29.65;;;;;;;17.81;68.53;99749.53;5028419;28;20045;-71
2021/06/07 03:50:51;;;;;;;46.67;28.08;;;;;;;18.06;68.04;99776.84;5046794;28;20101;-71
2021/06/07 03:53:18;;;;;;;46.92;27.55;;;;;;;18.16;67.80;99779.94;5047088;28;20048;-71
2021/06/07 03:55:46;;;;;;;42.67;25.23;;;;;;;18.20;67.43;99768.13;5044479;28;20485;-70
2021/06/07 03:58:12;;;;;;;44.92;25.10;;;;;;;18.23;67.19;99778.69;5032938;28;20442;-70
2021/06/07 04:00:39;;;;;;;36.42;24.30;;;;;;;18.39;66.89;99788.59;5062623;28;20048;-72
2021/06/07 04:03:07;;;;;;;39.58;24.05;;;;;;;18.42;66.57;99768.75;5038534;28;20504;-72
2021/06/07 04:05:34;;;;;;;37.60;23.38;;;;;;;18.58;66.44;99793.88;5013086;28;20497;-71
2021/06/07 04:08:01;;;;;;;39.67;23.70;;;;;;;18.59;66.26;99783.06;5043456;28;20045;-71
2021/06/07 04:10:28;;;;;;;39.25;22.35;;;;;;;18.61;66.33;99780.28;5045357;28;20071;-72
2021/06/07 04:12:55;;;;;;;37.00;21.88;;;;;;;18.74;66.10;99776.03;5020315;28;20040;-70
2021/06/07 04:15:24;;;;;;;32.17;20.65;;;;;;;18.69;65.90;99780.75;5055527;28;20060;-71
2021/06/07 04:17:54;;;;;;;37.25;21.58;;;;;;;18.74;66.08;99782.25;5034625;28;20338;-72
2021/06/07 04:20:26;;;;;;;30.45;20.10;;;;;;;18.62;66.37;99780.22;5004343;28;20047;-72
2021/06/07 04:22:52;;;;;;;31.42;19.33;;;;;;;18.61;66.40;99772.25;5044137;28;20087;-69
2021/06/07 04:25:20;;;;;;;30.55;17.85;;;;;;;18.73;66.23;99788.59;5002655;28;20084;-72
2021/06/07 04:27:47;;;;;;;35.75;17.95;;;;;;;18.78;66.06;99775.78;5037006;28;20032;-72
2021/06/07 04:30:16;;;;;;;32.47;18.02;;;;;;;18.95;65.76;99788.31;5065256;28;20048;-72
2021/06/07 04:32:45;;;;;;;27.40;17.70;;;;;;;19.06;65.63;99792.16;5072013;28;20093;-71
2021/06/07 04:35:13;;;;;;;26.80;16.23;;;;;;;19.23;66.05;99796.63;5062435;28;20052;-73
2021/06/07 04:37:43;;;;;;;28.95;16.35;;;;;;;19.17;65.96;99791.56;5037013;28;20069;-71
2021/06/07 04:40:11;;;;;;;29.48;16.58;;;;;;;19.20;65.41;99792.28;5015850;28;20067;-72
2021/06/07 04:42:38;;;;;;;28.13;15.95;;;;;;;19.22;65.37;99790.38;5042349;28;20041;-73
2021/06/07 04:45:06;;;;;;;26.83;15.57;;;;;;;19.21;65.43;99787.75;5057175;28;20052;-71
2021/06/07 04:47:32;;;;;;;29.73;14.68;;;;;;;19.22;65.17;99789.53;5059812;28;20167;-72
2021/06/07 04:49:58;;;;;;;37.72;22.60;;;;;;;19.37;65.28;99799.44;5054212;28;20135;-73
2021/06/07 04:52:24;;;;;;;30.55;15.38;;;;;;;19.42;65.15;99783.97;5066690;28;20041;-73
2021/06/07 04:54:53;;;;;;;34.13;13.73;;;;;;;19.37;65.34;99794.06;5044100;28;20063;-74
2021/06/07 04:57:19;;;;;;;23.35;13.43;;;;;;;19.35;65.26;99783.44;5046891;28;20095;-74
2021/06/07 04:59:45;;;;;;;23.38;12.15;;;;;;;19.33;65.67;99776.38;5063145;28;20135;-73
2021/06/07 05:02:12;;;;;;;22.27;11.77;;;;;;;19.48;64.68;99784.47;5066405;28;20132;-71
2021/06/07 05:04:38;;;;;;;17.25;11.00;;;;;;;19.54;64.85;99785.97;5058368;28;20178;-71
2021/06/07 05:07:04;;;;;;;18.40;10.27;;;;;;;19.52;64.41;99788.72;5047353;28;20045;-72
2021/06/07 05:09:30;;;;;;;22.52;9.75;;;;;;;19.40;64.60;99761.63;5031190;28;20049;-73
2021/06/07 05:11:58;;;;;;;15.13;7.82;;;;;;;19.60;63.78;99786.47;5067094;28;20044;-71
2021/06/07 05:14:26;;;;;;;18.00;7.85;;;;;;;19.70;63.49;99790.38;5020991;28;20048;-71
2021/06/07 05:16:52;;;;;;;16.10;7.28;;;;;;;19.64;63.65;99771.91;5028403;28;20102;-73
2021/06/07 05:19:19;;;;;;;13.55;7.38;;;;;;;19.80;63.78;99793.41;5045401;28;20308;-74
2021/06/07 05:21:47;;;;;;;15.88;7.38;;;;;;;19.81;63.32;99782.56;5042787;28;20095;-70
2021/06/07 05:24:13;;;;;;;20.30;6.63;;;;;;;19.72;63.38;99777.72;5037511;28;20044;-71
2021/06/07 05:26:39;;;;;;;11.38;6.70;;;;;;;19.85;63.02;99789.50;5036244;28;20048;-71
2021/06/07 05:29:05;;;;;;;7.55;5.25;;;;;;;19.83;62.93;99790.56;5060982;28;20049;-72
2021/06/07 05:31:31;;;;;;;9.15;5.47;;;;;;;19.82;62.95;99792.38;5022615;28;20093;-73
2021/06/07 05:33:57;;;;;;;10.57;5.57;;;;;;;19.81;62.19;99792.44;5034122;28;20044;-73
2021/06/07 05:36:23;;;;;;;10.20;5.40;;;;;;;19.85;62.48;99791.31;5049409;28;20040;-71
2021/06/07 05:38:48;;;;;;;11.80;5.85;;;;;;;19.89;62.69;99788.38;5036957;28;20045;-73
2021/06/07 05:41:14;;;;;;;10.10;6.13;;;;;;;19.83;62.89;99796.81;5037155;28;20375;-71
2021/06/07 05:43:40;;;;;;;26.88;6.63;;;;;;;20.07;62.80;99794.53;5028627;28;20420;-74
2021/06/07 05:46:06;;;;;;;12.45;6.72;;;;;;;20.15;62.85;99798.56;5042258;28;20483;-71
2021/06/07 05:48:32;;;;;;;11.23;6.30;;;;;;;20.19;62.29;99799.22;5042503;28;20048;-71
2021/06/07 05:50:58;;;;;;;10.73;7.07;;;;;;;20.33;62.09;99804.69;5045477;28;20045;-71
2021/06/07 05:53:24;;;;;;;11.55;6.60;;;;;;;20.38;61.85;99799.88;5038233;28;20509;-72
2021/06/07 05:55:50;;;;;;;16.70;6.60;;;;;;;20.47;62.06;99799.34;5026717;28;20084;-72
2021/06/07 05:58:19;;;;;;;16.15;6.80;;;;;;;20.60;62.15;99801.22;5046746;28;20051;-71
2021/06/07 06:00:48;;;;;;;13.90;7.30;;;;;;;20.62;62.53;99809.19;5043714;28;20045;-72
2021/06/07 06:03:14;;;;;;;16.40;7.50;;;;;;;20.64;62.44;99786.59;5043619;28;20446;-71
2021/06/07 06:05:40;;;;;;;10.55;6.70;;;;;;;20.73;62.60;99796.81;5025472;28;20450;-71
2021/06/07 06:08:06;;;;;;;12.30;6.97;;;;;;;20.87;61.93;99804.94;5042502;28;20041;-72
2021/06/07 06:10:35;;;;;;;9.32;6.20;;;;;;;20.81;61.78;99805.28;5043750;28;20114;-73
2021/06/07 06:13:01;;;;;;;13.05;6.88;;;;;;;20.57;62.21;99804.06;5045802;28;20110;-72
2021/06/07 06:15:27;;;;;;;8.85;6.57;;;;;;;20.08;62.57;99750.47;5028394;28;20048;-72
2021/06/07 06:17:54;;;;;;;9.85;6.45;;;;;;;20.51;62.57;99792.81;5032192;28;20496;-72
2021/06/07 06:20:21;;;;;;;12.57;6.00;;;;;;;20.64;62.19;99791.97;5045029;28;20103;-71
2021/06/07 06:22:47;;;;;;;12.98;5.88;;;;;;;20.64;61.62;99793.78;5042722;28;20179;-71
2021/06/07 06:25:16;;;;;;;14.57;5.10;;;;;;;20.60;61.72;99789.53;5028695;28;20077;-71
2021/06/07 06:27:43;;;;;;;8.32;4.63;;;;;;;20.67;61.04;99793.63;5039069;28;20064;-69
2021/06/07 06:30:16;;;;;;;10.73;5.15;;;;;;;20.63;61.62;99794.75;5010970;28;20487;-70
2021/06/07 06:32:44;;;;;;;6.60;4.50;;;;;;;20.57;60.72;99787.91;5033361;28;20044;-70
2021/06/07 06:35:10;;;;;;;11.70;4.03;;;;;;;20.68;60.07;99789.94;5042455;28;20106;-70
2021/06/07 06:37:37;;;;;;;6.82;4.47;;;;;;;20.66;60.68;99792.78;5040663;28;20036;-71
2021/06/07 06:40:05;;;;;;;12.38;4.95;;;;;;;20.78;60.60;99791.16;5045762;28;20143;-71
2021/06/07 06:42:31;;;;;;;8.70;4.20;;;;;;;20.69;60.24;99771.00;5037369;28;20085;-69
2021/06/07 06:44:57;;;;;;;7.30;3.83;;;;;;;20.77;59.46;99784.03;5020660;28;20072;-70
2021/06/07 06:47:23;;;;;;;8.18;3.95;;;;;;;20.78;59.74;99780.34;5025160;28;20057;-71
2021/06/07 06:49:49;;;;;;;9.27;3.60;;;;;;;20.87;58.79;99782.47;5027587;28;20033;-72
2021/06/07 06:52:15;;;;;;;5.93;3.35;;;;;;;20.91;58.85;99784.94;5039584;28;20046;-71
2021/06/07 06:54:41;;;;;;;9.98;3.72;;;;;;;20.93;58.97;99784.84;5026164;28;20103;-70
2021/06/07 06:57:08;;;;;;;9.35;3.15;;;;;;;21.05;58.38;99773.31;5039856;28;20071;-71
2021/06/07 06:59:34;;;;;;;6.32;3.60;;;;;;;21.25;58.15;99786.41;5036409;28;20033;-73
2021/06/07 07:02:00;;;;;;;12.15;3.63;;;;;;;21.29;58.00;99787.94;5040711;28;20042;-70
2021/06/07 07:04:26;;;;;;;8.43;3.60;;;;;;;21.45;57.51;99784.16;5027933;28;20537;-72
2021/06/07 07:06:52;;;;;;;7.85;2.67;;;;;;;21.67;55.57;99794.44;5051012;28;20128;-72
2021/06/07 07:09:18;;;;;;;5.07;2.55;;;;;;;22.04;54.43;99781.16;5037193;28;20095;-71
2021/06/07 07:11:44;;;;;;;5.68;2.63;;;;;;;22.06;54.67;99799.13;5034559;28;20045;-72
2021/06/07 07:14:10;;;;;;;8.40;2.72;;;;;;;22.52;53.84;99797.78;5052347;28;20125;-71
2021/06/07 07:16:38;;;;;;;6.88;2.88;;;;;;;22.84;53.28;99800.03;5022786;28;20136;-71
2021/06/07 07:19:04;;;;;;;6.35;3.22;;;;;;;22.60;53.69;99798.13;5035177;28;20482;-71
2021/06/07 07:21:30;;;;;;;7.75;3.45;;;;;;;22.78;53.28;99805.00;5049729;28;20692;-70
2021/06/07 07:23:56;;;;;;;7.72;3.40;;;;;;;23.21;52.13;99799.19;5052505;28;20101;-68
2021/06/07 07:26:25;;;;;;;10.30;3.92;;;;;;;23.36;52.13;99803.53;5037708;28;20130;-70
2021/06/07 07:28:51;;;;;;;7.82;3.45;;;;;;;24.13;50.29;99798.69;5056496;28;20119;-72
2021/06/07 07:31:17;;;;;;;5.25;3.58;;;;;;;24.15;49.47;99806.72;5052501;28;20139;-70
2021/06/07 07:33:45;;;;;;;6.63;2.78;;;;;;;24.81;47.95;99807.91;5069088;28;20346;-74
2021/06/07 07:36:13;;;;;;;4.80;2.80;;;;;;;24.45;47.83;99807.97;5053138;28;20137;-70
2021/06/07 07:38:39;;;;;;;4.85;2.60;;;;;;;24.04;48.33;99809.34;5038922;28;20495;-69
2021/06/07 07:41:06;;;;;;;5.22;2.88;;;;;;;25.03;46.40;99805.25;5032249;28;20054;-72
2021/06/07 07:43:32;;;;;;;6.47;2.90;;;;;;;25.81;45.14;99793.50;5065934;28;20040;-70
2021/06/07 07:45:59;;;;;;;5.28;3.20;;;;;;;26.05;44.76;99804.22;5048427;28;20048;-70
2021/06/07 07:48:25;;;;;;;3.88;2.80;;;;;;;26.18;44.56;99794.03;5037242;28;20051;-70
2021/06/07 07:50:52;;;;;;;7.15;3.20;;;;;;;26.57;43.67;99798.84;5034039;28;20559;-74
2021/06/07 07:53:20;;;;;;;7.18;2.90;;;;;;;26.54;43.24;99796.38;5032105;28;20466;-72
2021/06/07 07:55:47;;;;;;;4.05;2.80;;;;;;;27.29;42.12;99802.59;5051622;28;20055;-71
2021/06/07 07:58:14;;;;;;;5.47;2.92;;;;;;;27.36;41.39;99796.47;5050858;28;20040;-69
2021/06/07 08:00:41;;;;;;;8.85;2.72;;;;;;;28.25;39.31;99807.44;5034072;28;20605;-71
2021/06/07 08:03:09;;;;;;;3.42;2.35;;;;;;;27.53;39.72;99803.16;5050932;28;20186;-71
2021/06/07 08:05:36;;;;;;;3.65;2.70;;;;;;;28.33;38.45;99804.88;5048599;28;20051;-72
2021/06/07 08:08:08;;;;;;;4.07;2.53;;;;;;;28.49;37.52;99808.81;5037420;28;20044;-71
2021/06/07 08:10:34;;;;;;;6.15;2.40;;;;;;;27.99;38.42;99792.59;5073432;28;20052;-69
2021/06/07 08:13:01;;;;;;;3.63;2.72;;;;;;;28.14;38.81;99797.53;5040307;28;20101;-70
2021/06/07 08:15:29;;;;;;;4.55;2.42;;;;;;;28.07;37.84;99792.75;5072039;28;20060;-72
2021/06/07 08:17:57;;;;;;;18.98;2.85;;;;;;;30.20;33.82;99788.41;5052361;28;20139;-73
2021/06/07 08:20:23;;;;;;;6.93;2.53;;;;;;;31.48;31.24;99796.97;5060472;28;20040;-72
2021/06/07 08:22:52;;;;;;;4.68;2.20;;;;;;;29.21;35.70;99792.81;5044514;28;20134;-75
2021/06/07 08:25:19;;;;;;;6.93;2.80;;;;;;;29.72;34.52;99797.84;5074540;28;20098;-73
2021/06/07 08:27:46;;;;;;;4.10;1.98;;;;;;;30.46;32.71;99786.66;5077924;28;20064;-72
2021/06/07 08:30:15;;;;;;;2.90;1.90;;;;;;;29.84;33.41;99792.06;5059956;28;20202;-69
2021/06/07 08:32:48;;;;;;;3.53;1.90;;;;;;;28.84;34.90;99778.19;5070523;28;20075;-73
2021/06/07 08:35:15;;;;;;;5.35;1.67;;;;;;;28.38;36.22;99798.00;5048538;28;20079;-72
2021/06/07 08:37:41;;;;;;;7.10;2.10;;;;;;;29.96;33.94;99799.03;5054760;28;20135;-70
2021/06/07 08:40:11;;;;;;;5.25;2.67;;;;;;;33.03;28.65;99780.72;5032198;28;20624;-70
2021/06/07 08:42:41;;;;;;;7.13;2.20;;;;;;;34.96;25.82;99806.47;5039194;28;20047;-72
2021/06/07 08:45:09;;;;;;;11.98;1.80;;;;;;;36.35;23.37;99795.56;5069186;28;20041;-71
2021/06/07 08:47:36;;;;;;;7.10;1.67;;;;;;;33.91;26.49;99786.06;5055230;28;20044;-71
2021/06/07 08:50:03;;;;;;;3.55;1.85;;;;;;;31.77;30.31;99778.31;5031764;28;20717;-71
2021/06/07 08:52:29;;;;;;;11.57;2.47;;;;;;;31.22;31.47;99783.25;5071120;28;20323;-70
2021/06/07 08:54:55;;;;;;;3.05;2.00;;;;;;;31.53;31.23;99776.28;5052716;28;20035;-71
2021/06/07 08:57:21;;;;;;;5.72;2.28;;;;;;;33.33;27.70;99735.19;5063061;28;20044;-71
2021/06/07 08:59:48;;;;;;;4.32;2.03;;;;;;;33.15;28.26;99782.91;5055298;28;20075;-70
2021/06/07 09:02:14;;;;;;;2.00;1.27;;;;;;;32.51;28.19;99777.38;5056868;28;20044;-69
2021/06/07 09:04:53;;;;;;;3.97;1.30;;;;;;;30.88;30.71;99779.53;5036462;28;20649;-71
2021/06/07 09:07:19;;;;;;;4.38;1.52;;;;;;;30.02;32.13;99770.22;5070805;28;20064;-72
2021/06/07 09:10:25;;;;;;;3.05;1.75;;;;;;;29.38;33.21;99768.31;5056597;28;20044;-75
2021/06/07 09:12:57;;;;;;;5.05;2.10;;;;;;;32.87;28.12;99759.56;4991003;28;20048;-72
2021/06/07 09:15:24;;;;;;;2.47;1.92;;;;;;;35.59;24.22;99773.84;5008769;28;20066;-71
2021/06/07 09:17:50;;;;;;;4.10;1.33;;;;;;;36.39;23.30;99767.31;4998373;28;20434;-73
2021/06/07 09:20:19;;;;;;;5.35;1.83;;;;;;;38.04;21.45;99772.22;5010964;28;20124;-71
2021/06/07 09:23:10;;;;;;;2.30;1.90;;;;;;;37.81;21.48;99766.13;4997446;28;20046;-74
2021/06/07 09:25:45;;;;;;;3.35;1.60;;;;;;;34.05;25.87;99755.03;5009085;28;20053;-70
2021/06/07 09:28:18;;;;;;;3.72;1.65;;;;;;;33.21;26.90;99731.88;4991455;28;20149;-75
2021/06/07 09:30:55;;;;;;;3.03;1.50;;;;;;;33.33;26.78;99749.75;4999552;28;20053;-70
2021/06/07 09:33:30;;;;;;;4.78;1.88;;;;;;;32.79;27.55;99751.31;4991808;28;20090;-71
2021/06/07 09:36:10;;;;;;;4.60;1.70;;;;;;;35.36;23.75;99755.66;5006542;28;20065;-70
2021/06/07 09:39:13;;;;;;;4.40;1.83;;;;;;;37.79;21.19;99761.81;5009658;28;20097;-69
2021/06/07 09:41:51;;;;;;;4.18;1.20;;;;;;;36.92;21.43;99748.53;4946121;28;20379;-73
2021/06/07 09:44:23;;;;;;;1.80;1.20;;;;;;;33.72;25.05;99741.56;4988467;28;20066;-70
2021/06/07 09:47:06;;;;;;;3.08;1.50;;;;;;;34.52;24.20;99738.44;5023741;28;20053;-70
2021/06/07 09:49:42;;;;;;;4.30;1.60;;;;;;;33.01;26.64;99738.78;5021160;28;20145;-71
2021/06/07 09:52:12;;;;;;;5.93;1.50;;;;;;;33.51;26.33;99728.41;5007417;28;20054;-72
2021/06/07 09:54:38;;;;;;;2.72;1.60;;;;;;;33.85;26.33;99719.88;5007332;28;20041;-73
2021/06/07 09:57:05;;;;;;;4.13;1.55;;;;;;;33.75;25.89;99722.81;5021398;28;20049;-71
2021/06/07 09:59:33;;;;;;;1.48;1.30;;;;;;;34.15;25.12;99710.75;5024034;28;20045;-71
2021/06/07 10:02:00;;;;;;;7.30;1.30;;;;;;;33.39;25.74;99706.94;5002601;28;20157;-69
2021/06/07 10:04:49;;;;;;;10.40;1.60;;;;;;;32.04;28.02;99709.50;5004075;28;20627;-70
2021/06/07 10:07:16;;;;;;;5.25;1.40;;;;;;;31.31;29.36;99704.69;5022191;28;20136;-66
2021/06/07 10:10:20;;;;;;;6.65;1.45;;;;;;;30.00;31.40;99702.00;5003658;28;20468;-69
2021/06/07 10:12:47;;;;;;;3.03;1.58;;;;;;;30.74;30.22;99694.34;5022727;28;20165;-71
2021/06/07 10:15:35;;;;;;;4.10;1.67;;;;;;;30.50;30.36;99697.75;5001697;28;20412;-71
2021/06/07 10:18:08;;;;;;;4.57;1.75;;;;;;;31.64;28.78;99699.19;5007497;28;20061;-66
2021/06/07 10:20:51;;;;;;;3.35;1.33;;;;;;;30.49;30.40;99698.72;5048974;28;20032;-67
2021/06/07 10:23:29;;;;;;;1.48;1.13;;;;;;;29.40;32.09;99686.22;5053980;28;20044;-66
2021/06/07 10:26:00;;;;;;;5.40;1.40;;;;;;;28.78;33.16;99683.22;5045316;28;20052;-66
2021/06/07 10:28:35;;;;;;;5.53;1.38;;;;;;;28.47;33.63;99689.88;5043496;28;20043;-66
2021/06/07 10:31:23;;;;;;;2.55;1.40;;;;;;;28.20;33.95;99693.31;5071295;28;20041;-69
2021/06/07 10:34:01;;;;;;;1.42;1.20;;;;;;;27.97;33.62;99683.66;5040212;28;20048;-66
2021/06/07 10:36:27;;;;;;;2.05;1.38;;;;;;;27.75;34.29;99700.25;5057068;28;20064;-68
2021/06/07 10:39:13;;;;;;;1.35;1.10;;;;;;;27.61;34.58;99703.34;5034634;28;20089;-68
2021/06/07 10:41:42;;;;;;;5.63;2.40;;;;;;;27.53;34.76;99691.44;5034146;28;20339;-67
2021/06/07 10:44:09;;;;;;;2.90;1.67;;;;;;;27.68;34.67;99699.09;5069436;28;20081;-68
2021/06/07 10:46:41;;;;;;;5.30;1.50;;;;;;;27.61;34.79;99700.63;5061255;28;20044;-69
2021/06/07 10:49:26;;;;;;;;;;;;;;;26.52;38.80;99696.88;5044253;28;20063;-71
2021/06/07 10:52:28;;;;;;;8.23;2.35;;;;;;;25.25;43.82;99680.44;5040844;28;20282;-72
2021/06/07 10:55:05;;;;;;;7.47;2.42;;;;;;;24.20;47.15;99688.88;5001911;28;20050;-70
2021/06/07 10:58:02;;;;;;;5.00;2.70;;;;;;;23.62;49.23;99677.94;4981436;28;20145;-73
2021/06/07 11:00:39;;;;;;;8.55;2.22;;;;;;;23.90;48.57;99693.91;4969992;28;20088;-71
2021/06/07 11:03:26;;;;;;;8.05;3.20;;;;;;;24.26;49.68;99693.84;4978692;28;20088;-72
2021/06/07 11:05:58;;;;;;;6.50;2.92;;;;;;;24.72;49.74;99686.56;4960362;28;20151;-70
2021/06/07 11:08:31;;;;;;;5.45;2.50;;;;;;;24.80;49.58;99694.13;5018474;28;20164;-71
2021/06/07 11:11:06;;;;;;;6.50;2.67;;;;;;;24.49;51.78;99714.56;4971013;28;20091;-70
2021/06/07 11:13:53;;;;;;;82.90;6.65;;;;;;;19.67;85.38;99746.63;4991345;28;20049;-68
2021/06/07 11:16:31;;;;;;;9.23;2.60;;;;;;;-141.86;100.00;57692.91;5002865;28;20052;-67
2021/06/07 11:19:06;;;;;;;12.20;4.60;;;;;;;-141.86;100.00;57692.91;5010785;28;20075;-68
2021/06/07 11:21:33;;;;;;;10.85;4.82;;;;;;;-141.86;100.00;57692.91;5010009;28;20076;-67
2021/06/07 11:24:00;;;;;;;13.38;4.70;;;;;;;-141.86;100.00;57692.91;5002166;28;20045;-68
2021/06/07 11:26:52;;;;;;;12.23;6.70;;;;;;;-141.86;100.00;57692.91;5012133;28;20140;-69
2021/06/07 11:29:18;;;;;;;18.00;7.47;;;;;;;-141.86;100.00;57692.91;5008351;28;20183;-67
2021/06/07 11:31:55;;;;;;;7.70;4.40;;;;;;;-141.86;100.00;57692.91;5053913;28;20135;-69
2021/06/07 11:34:44;;;;;;;12.90;4.18;;;;;;;-141.86;100.00;57692.91;5017838;28;20047;-70